Terminal Aerodrome Forecast
Issued by NWS

Home | Current Version | Previous Version | Text Only | Print | Product List | Glossary On
Versions: 1 2 3 4 5 6 7 8 9 10 11 12 13 14 15 16
018
FTUS44 KMAF 232334
TAFINK
TAF
KINK 232334Z 2400/2424 19035G45KT 6SM BLDU SKC
     FM240100 28030G40KT 6SM BLDU FEW250
      TEMPO 2401/2405 3SM BLDU SCT005
     FM240600 25015G25KT P6SM FEW250
     FM241500 26025G35KT P6SM FEW250
      AMD NOT SKED=

USA.gov is the U.S. government's official web portal to all federal, state and local government web resources and services.